Time;durP1;ratioP1;P1;durP2;ratioP2;P2;SDS_P1;SDS_P2;PMS_P1;PMS_P2;Temp;Humidity;BMP_temperature;BMP_pressure;BME280_temperature;BME280_humidity;BME280_pressure;Samples;Min_cycle;Max_cycle;Signal;HPM_P1;HPM_P2
2024/01/23 00:02:15;;;;;;;;;;;6.70;99.90;;;;;;5052395;28;20616;-92
2024/01/23 00:04:41;;;;;;;;;;;6.70;99.90;;;;;;5052909;28;19957;-93
2024/01/23 00:07:06;;;;;;;;;;;6.60;99.90;;;;;;5054906;28;20042;-92
2024/01/23 00:09:32;;;;;;;;;;;6.70;99.90;;;;;;5056810;28;20316;-92
2024/01/23 00:12:00;;;;;;;;;;;6.60;99.90;;;;;;5054997;28;20051;-93
2024/01/23 00:14:25;;;;;;;;;;;6.60;99.90;;;;;;5054168;28;19964;-93
2024/01/23 00:16:51;;;;;;;;;;;6.50;99.90;;;;;;5059221;28;19954;-93
2024/01/23 00:19:17;;;;;;;;;;;6.40;99.90;;;;;;5058940;28;19948;-92
2024/01/23 00:21:42;;;;;;;;;;;6.40;99.90;;;;;;5054302;28;19986;-93
2024/01/23 00:24:09;;;;;;;;;;;6.50;99.90;;;;;;5054324;28;19942;-94
2024/01/23 00:26:35;;;;;;;;;;;6.60;99.90;;;;;;5055619;28;19955;-94
2024/01/23 00:29:02;;;;;;;;;;;6.60;99.90;;;;;;5055317;28;19995;-93
2024/01/23 00:31:28;;;;;;;;;;;6.50;99.90;;;;;;5060434;28;20012;-93
2024/01/23 00:33:54;;;;;;;;;;;6.50;99.90;;;;;;5066045;28;19990;-93
2024/01/23 00:36:19;;;;;;;;;;;6.60;99.90;;;;;;5056341;28;19933;-93
2024/01/23 00:38:45;;;;;;;;;;;6.50;99.90;;;;;;5041308;28;19954;-92
2024/01/23 00:41:11;;;;;;;;;;;6.50;99.90;;;;;;5038654;28;19948;-94
2024/01/23 00:43:37;;;;;;;;;;;6.50;99.90;;;;;;5041171;28;19985;-94
2024/01/23 00:46:03;;;;;;;;;;;6.50;99.90;;;;;;5039651;28;19937;-93
2024/01/23 00:48:29;;;;;;;;;;;6.50;99.90;;;;;;5040981;28;19941;-92
2024/01/23 00:50:55;;;;;;;;;;;6.40;99.90;;;;;;5039585;28;20208;-92
2024/01/23 00:53:20;;;;;;;;;;;6.40;99.90;;;;;;5039714;28;19943;-93
2024/01/23 00:55:46;;;;;;;;;;;6.50;99.90;;;;;;5042616;28;19956;-93
2024/01/23 00:58:12;;;;;;;;;;;6.40;99.90;;;;;;5040071;28;19949;-93
2024/01/23 01:00:39;;;;;;;;;;;6.40;99.90;;;;;;5041834;28;19940;-92
2024/01/23 01:03:05;;;;;;;;;;;6.40;99.90;;;;;;5037815;28;20007;-93
2024/01/23 01:05:30;;;;;;;;;;;6.40;99.90;;;;;;5043712;28;19946;-93
2024/01/23 01:07:56;;;;;;;;;;;6.40;99.90;;;;;;5039545;28;19951;-93
2024/01/23 01:10:23;;;;;;;;;;;6.30;99.90;;;;;;5035497;28;19962;-93
2024/01/23 01:12:48;;;;;;;;;;;6.20;99.90;;;;;;5038014;28;19945;-93
2024/01/23 01:15:14;;;;;;;;;;;6.20;99.90;;;;;;5037924;28;19944;-92
2024/01/23 01:17:40;;;;;;;;;;;6.20;99.90;;;;;;5040468;28;19948;-94
2024/01/23 01:20:06;;;;;;;;;;;6.10;99.90;;;;;;5045077;28;19944;-93
2024/01/23 01:22:31;;;;;;;;;;;6.20;99.90;;;;;;5042178;28;19942;-94
2024/01/23 01:24:57;;;;;;;;;;;6.30;99.90;;;;;;5040449;28;19943;-92
2024/01/23 01:27:23;;;;;;;;;;;6.30;99.90;;;;;;5043799;28;20017;-93
2024/01/23 01:29:49;;;;;;;;;;;6.20;99.90;;;;;;5044667;28;19937;-92
2024/01/23 01:32:14;;;;;;;;;;;6.10;99.90;;;;;;5047831;28;19958;-94
2024/01/23 01:34:40;;;;;;;;;;;6.00;99.90;;;;;;5039955;28;19965;-94
2024/01/23 01:37:07;;;;;;;;;;;6.00;99.90;;;;;;5043791;28;19954;-92
2024/01/23 01:39:32;;;;;;;;;;;6.10;99.90;;;;;;5041327;28;19952;-92
2024/01/23 01:42:01;;;;;;;;;;;6.00;99.90;;;;;;5042112;28;20205;-94
2024/01/23 01:44:29;;;;;;;;;;;6.00;99.90;;;;;;5048023;28;19963;-92
2024/01/23 01:46:54;;;;;;;;;;;5.90;99.90;;;;;;5050370;28;20093;-93
2024/01/23 01:49:27;;;;;;;;;;;5.90;99.90;;;;;;5047429;28;19966;-94
2024/01/23 01:51:54;;;;;;;;;;;5.90;99.90;;;;;;5044764;28;19943;-92
2024/01/23 01:54:20;;;;;;;;;;;5.80;99.90;;;;;;5043528;28;19941;-93
2024/01/23 01:56:46;;;;;;;;;;;5.80;99.90;;;;;;5044371;28;19944;-94
2024/01/23 01:59:15;;;;;;;;;;;5.80;99.90;;;;;;5048677;28;19951;-93
2024/01/23 02:01:41;;;;;;;;;;;5.70;99.90;;;;;;5045549;28;19970;-94
2024/01/23 02:04:07;;;;;;;;;;;5.80;99.90;;;;;;5043755;28;19969;-93
2024/01/23 02:06:32;;;;;;;;;;;5.80;99.90;;;;;;5043685;28;19963;-93
2024/01/23 02:08:58;;;;;;;;;;;5.70;99.90;;;;;;5047077;28;19962;-93
2024/01/23 02:11:24;;;;;;;;;;;5.60;99.90;;;;;;5043312;28;19948;-94
2024/01/23 02:13:53;;;;;;;;;;;5.60;99.90;;;;;;5035983;28;20077;-93
2024/01/23 02:16:19;;;;;;;;;;;5.60;99.90;;;;;;5048412;28;19991;-93
2024/01/23 02:18:45;;;;;;;;;;;5.60;99.90;;;;;;5047518;28;19939;-94
2024/01/23 02:21:11;;;;;;;;;;;5.60;99.90;;;;;;5044993;28;19952;-93
2024/01/23 02:23:39;;;;;;;;;;;5.50;99.90;;;;;;5045506;28;19998;-93
2024/01/23 02:26:05;;;;;;;;;;;5.50;99.90;;;;;;5042487;28;19938;-94
2024/01/23 02:28:31;;;;;;;;;;;5.40;99.90;;;;;;5048602;28;19967;-93
2024/01/23 02:30:57;;;;;;;;;;;5.40;99.90;;;;;;5050201;28;19950;-93
2024/01/23 02:33:23;;;;;;;;;;;5.20;99.90;;;;;;5051429;28;19991;-94
2024/01/23 02:35:48;;;;;;;;;;;5.20;99.90;;;;;;5050486;28;25053;-93
2024/01/23 02:38:14;;;;;;;;;;;5.20;99.90;;;;;;5068943;28;19993;-93
2024/01/23 02:40:45;;;;;;;;;;;5.10;99.90;;;;;;5068512;28;19945;-95
2024/01/23 02:43:14;;;;;;;;;;;5.00;99.90;;;;;;5068246;28;20296;-94
2024/01/23 02:45:43;;;;;;;;;;;5.00;99.90;;;;;;5071164;28;19932;-94
2024/01/23 02:48:11;;;;;;;;;;;5.00;99.90;;;;;;5074531;28;19947;-94
2024/01/23 02:50:38;;;;;;;;;;;4.90;99.90;;;;;;5076592;28;20009;-94
2024/01/23 02:53:04;;;;;;;;;;;4.90;99.90;;;;;;5071034;28;19933;-94
2024/01/23 02:55:30;;;;;;;;;;;4.90;99.90;;;;;;5070735;28;19959;-93
2024/01/23 03:27:50;;;;;;;;;;;5.10;99.90;;;;;;5067652;23;19970;-94
2024/01/23 03:30:47;;;;;;;;;;;5.10;99.90;;;;;;5040687;28;19936;-91
2024/01/23 03:36:53;;;;;;;;;;;5.00;99.90;;;;;;5041238;28;20007;-93
2024/01/23 03:39:39;;;;;;;;;;;4.90;99.90;;;;;;5180798;22;20063;-92
2024/01/23 03:42:27;;;;;;;;;;;5.00;99.90;;;;;;5017294;28;20020;-92
2024/01/23 05:06:32;;;;;;;;;;;4.70;99.90;;;;;;4993598;28;19980;-91
2024/01/23 05:08:52;;;;;;;;;;;;;;;;;;;;;
2024/01/23 05:11:30;;;;;;;;;;;4.60;99.90;;;;;;4974298;28;19946;-91
2024/01/23 06:22:53;;;;;;;;;;;5.70;99.90;;;;;;5134213;23;20008;-84
2024/01/23 06:25:18;;;;;;;;;;;5.80;99.90;;;;;;5029493;28;19948;-85
2024/01/23 06:27:44;;;;;;;;;;;5.90;99.90;;;;;;5026866;28;20308;-83
2024/01/23 06:30:11;;;;;;;;;;;6.00;99.90;;;;;;5022217;28;25076;-83
2024/01/23 06:32:37;;;;;;;;;;;6.10;99.90;;;;;;5029419;28;19992;-84
2024/01/23 06:35:04;;;;;;;;;;;6.10;99.90;;;;;;5030614;28;19947;-85
2024/01/23 06:37:29;;;;;;;;;;;6.20;99.90;;;;;;5035077;28;19952;-85
2024/01/23 06:39:55;;;;;;;;;;;6.30;99.90;;;;;;5034180;28;19997;-84
2024/01/23 06:42:20;;;;;;;;;;;6.30;99.90;;;;;;5027233;28;20644;-84
2024/01/23 06:44:46;;;;;;;;;;;6.40;99.90;;;;;;5027772;28;19933;-84
2024/01/23 06:47:11;;;;;;;;;;;6.50;99.90;;;;;;5035305;28;19948;-84
2024/01/23 06:49:37;;;;;;;;;;;6.60;99.90;;;;;;5026589;28;20319;-84
2024/01/23 06:52:03;;;;;;;;;;;6.60;99.90;;;;;;5023926;28;20411;-82
2024/01/23 06:54:29;;;;;;;;;;;6.60;99.90;;;;;;5031006;28;19967;-84
2024/01/23 06:56:54;;;;;;;;;;;6.60;99.90;;;;;;5033448;28;20066;-84
2024/01/23 06:59:20;;;;;;;;;;;6.70;99.90;;;;;;5019581;28;19963;-84
2024/01/23 07:01:45;;;;;;;;;;;6.70;99.90;;;;;;5029332;28;20405;-84
2024/01/23 07:04:11;;;;;;;;;;;6.70;99.90;;;;;;5033253;28;19952;-84
2024/01/23 07:06:36;;;;;;;;;;;6.80;99.90;;;;;;5027844;28;20399;-84
2024/01/23 07:09:04;;;;;;;;;;;6.90;99.90;;;;;;5028749;28;20469;-84
2024/01/23 07:11:30;;;;;;;;;;;7.00;99.90;;;;;;5025302;28;20326;-84
2024/01/23 07:13:55;;;;;;;;;;;7.00;99.90;;;;;;5041895;28;19971;-83
2024/01/23 07:16:21;;;;;;;;;;;7.00;99.90;;;;;;5048010;28;19946;-84
2024/01/23 07:18:46;;;;;;;;;;;7.00;99.90;;;;;;5053453;28;19954;-84
2024/01/23 07:21:12;;;;;;;;;;;7.10;99.90;;;;;;5047258;28;19986;-84
2024/01/23 07:23:38;;;;;;;;;;;7.00;99.90;;;;;;5050870;28;19980;-84
2024/01/23 07:26:03;;;;;;;;;;;7.10;99.90;;;;;;5037050;28;20409;-84
2024/01/23 07:28:30;;;;;;;;;;;7.10;99.90;;;;;;5027383;28;19968;-84
2024/01/23 07:30:56;;;;;;;;;;;7.10;99.90;;;;;;5036599;28;20055;-82
2024/01/23 07:33:21;;;;;;;;;;;7.10;99.90;;;;;;5029141;28;20405;-82
2024/01/23 07:35:47;;;;;;;;;;;7.10;99.90;;;;;;5026467;28;20357;-82
2024/01/23 07:38:12;;;;;;;;;;;7.20;99.90;;;;;;5034092;28;20410;-81
2024/01/23 07:40:38;;;;;;;;;;;7.10;99.90;;;;;;5022790;28;19949;-82
2024/01/23 07:43:04;;;;;;;;;;;7.20;99.90;;;;;;5024210;28;19937;-80
2024/01/23 07:45:29;;;;;;;;;;;7.30;99.90;;;;;;5022846;28;19956;-81
2024/01/23 07:47:55;;;;;;;;;;;7.30;99.90;;;;;;5022639;28;19950;-82
2024/01/23 07:50:21;;;;;;;;;;;7.30;99.90;;;;;;5015357;28;20026;-83
2024/01/23 07:52:47;;;;;;;;;;;7.30;99.90;;;;;;5021041;28;19939;-82
2024/01/23 07:55:12;;;;;;;;;;;7.30;99.90;;;;;;5022494;28;19954;-83
2024/01/23 07:57:55;;;;;;;;;;;7.30;99.90;;;;;;5015404;28;19950;-82
2024/01/23 08:00:21;;;;;;;;;;;7.20;99.90;;;;;;5023507;28;19941;-83
2024/01/23 08:02:46;;;;;;;;;;;7.30;99.90;;;;;;5022794;28;19933;-84
2024/01/23 08:05:12;;;;;;;;;;;7.40;99.90;;;;;;5042520;28;19940;-82
2024/01/23 08:07:38;;;;;;;;;;;7.40;99.90;;;;;;5039361;28;19955;-83
2024/01/23 08:10:04;;;;;;;;;;;7.40;99.90;;;;;;5034948;28;20118;-82
2024/01/23 08:12:29;;;;;;;;;;;7.50;99.90;;;;;;5038206;28;20036;-82
2024/01/23 08:14:55;;;;;;;;;;;7.60;99.90;;;;;;5027839;28;20480;-82
2024/01/23 08:17:20;;;;;;;;;;;7.70;99.90;;;;;;5019604;28;19952;-82
2024/01/23 08:19:46;;;;;;;;;;;7.80;99.90;;;;;;5016571;28;19936;-82
2024/01/23 08:22:11;;;;;;;;;;;7.80;99.90;;;;;;5021350;28;19951;-81
2024/01/23 08:24:37;;;;;;;;;;;7.80;99.90;;;;;;5022978;28;19961;-80
2024/01/23 08:27:03;;;;;;;;;;;7.80;99.90;;;;;;5015463;28;19948;-82
2024/01/23 08:29:29;;;;;;;;;;;7.90;99.90;;;;;;5010690;28;19946;-82
2024/01/23 08:31:54;;;;;;;;;;;8.00;99.90;;;;;;5020348;28;19938;-82
2024/01/23 08:34:20;;;;;;;;;;;7.90;99.90;;;;;;5027099;28;19948;-82
2024/01/23 08:36:45;;;;;;;;;;;8.00;99.90;;;;;;5022440;28;19969;-83
2024/01/23 08:39:11;;;;;;;;;;;8.10;99.90;;;;;;5024232;28;20293;-86
2024/01/23 08:41:53;;;;;;;;;;;8.20;99.90;;;;;;5023228;28;21297;-86
2024/01/23 08:44:20;;;;;;;;;;;8.20;99.90;;;;;;5025195;28;20182;-85
2024/01/23 08:46:45;;;;;;;;;;;8.30;99.90;;;;;;5018566;28;19944;-80
2024/01/23 08:49:46;;;;;;;;;;;8.30;99.90;;;;;;5012056;28;20039;-87
2024/01/23 08:52:12;;;;;;;;;;;8.40;99.90;;;;;;5013553;28;19943;-90
2024/01/23 08:54:37;;;;;;;;;;;8.40;99.90;;;;;;5024809;28;20190;-85
2024/01/23 08:57:23;;;;;;;;;;;8.50;99.90;;;;;;5022355;28;19987;-92
2024/01/23 08:59:49;;;;;;;;;;;8.50;99.90;;;;;;5015156;28;19963;-85
2024/01/23 09:02:17;;;;;;;;;;;8.60;99.90;;;;;;5028655;28;20204;-86
2024/01/23 09:04:43;;;;;;;;;;;8.60;99.90;;;;;;5022043;28;19979;-86
2024/01/23 09:07:09;;;;;;;;;;;8.60;99.90;;;;;;5018879;28;25063;-85
2024/01/23 09:09:36;;;;;;;;;;;8.60;99.90;;;;;;5020298;28;20405;-89
2024/01/23 09:12:06;;;;;;;;;;;8.60;99.90;;;;;;5015521;28;19949;-88
2024/01/23 09:14:32;;;;;;;;;;;8.60;99.90;;;;;;5018610;28;20680;-89
2024/01/23 09:16:58;;;;;;;;;;;8.70;99.90;;;;;;5025887;28;20036;-87
2024/01/23 09:23:42;;;;;;;;;;;8.80;99.90;;;;;;5037820;28;19990;-88
2024/01/23 09:28:51;;;;;;;;;;;8.90;99.90;;;;;;5029323;28;19971;-88
2024/01/23 09:31:39;;;;;;;;;;;9.10;99.90;;;;;;5025273;28;19943;-87
2024/01/23 09:34:23;;;;;;;;;;;;;;;;;;;;;
2024/01/23 09:37:01;;;;;;;;;;;9.20;99.90;;;;;;4992904;28;19951;-88
2024/01/23 09:51:35;;;;;;;;;;;9.30;99.90;;;;;;4990516;28;19961;-88
2024/01/23 11:39:18;;;;;;;;;;;9.60;99.90;;;;;;4914979;28;19993;-93
2024/01/23 11:41:51;;;;;;;;;;;9.60;99.90;;;;;;4906097;28;20000;-90
2024/01/23 11:44:18;;;;;;;;;;;9.50;99.90;;;;;;4917681;28;19963;-85
2024/01/23 11:46:47;;;;;;;;;;;9.40;99.90;;;;;;4910738;28;19962;-82
2024/01/23 11:49:13;;;;;;;;;;;9.40;99.90;;;;;;4899349;28;20052;-88
2024/01/23 11:51:39;;;;;;;;;;;9.40;99.90;;;;;;4907193;28;19968;-86
2024/01/23 11:54:09;;;;;;;;;;;9.40;99.90;;;;;;4913495;28;19953;-87
2024/01/23 11:56:36;;;;;;;;;;;9.40;99.90;;;;;;4907772;28;20256;-89
2024/01/23 11:59:02;;;;;;;;;;;9.40;99.90;;;;;;4915885;28;20041;-84
2024/01/23 12:01:29;;;;;;;;;;;9.50;99.90;;;;;;4916400;28;20391;-88
2024/01/23 12:03:55;;;;;;;;;;;9.50;99.90;;;;;;4908856;28;20032;-79
2024/01/23 12:06:21;;;;;;;;;;;9.50;99.90;;;;;;4919597;28;20019;-83
2024/01/23 12:08:46;;;;;;;;;;;9.50;99.90;;;;;;4914982;28;19950;-88
2024/01/23 12:11:14;;;;;;;;;;;9.50;99.90;;;;;;4911947;28;20024;-85
2024/01/23 12:13:42;;;;;;;;;;;9.50;99.90;;;;;;4928110;28;20076;-79
2024/01/23 12:16:08;;;;;;;;;;;9.50;99.90;;;;;;4931344;28;20074;-81
2024/01/23 12:19:08;;;;;;;;;;;;;;;;;;;;;
2024/01/23 12:21:35;;;;;;;;;;;9.50;99.90;;;;;;4921155;28;19985;-86
2024/01/23 12:24:24;;;;;;;;;;;9.50;99.90;;;;;;4932551;28;19960;-85
2024/01/23 12:26:59;;;;;;;;;;;9.50;99.90;;;;;;4937375;28;20089;-89
2024/01/23 12:29:24;;;;;;;;;;;9.50;99.90;;;;;;4936128;28;20067;-86
2024/01/23 12:31:50;;;;;;;;;;;9.60;99.90;;;;;;4932149;28;19938;-85
2024/01/23 12:34:19;;;;;;;;;;;9.60;99.90;;;;;;4928071;28;20592;-88
2024/01/23 12:36:49;;;;;;;;;;;9.60;99.90;;;;;;4932377;28;19985;-88
2024/01/23 12:39:18;;;;;;;;;;;9.60;99.90;;;;;;4934789;28;19948;-88
2024/01/23 12:41:47;;;;;;;;;;;9.60;99.90;;;;;;4936047;28;20362;-85
2024/01/23 12:44:12;;;;;;;;;;;9.60;99.90;;;;;;4929634;28;19970;-85
2024/01/23 12:49:18;;;;;;;;;;;9.60;99.90;;;;;;5764767;23;20023;-84
2024/01/23 12:51:51;;;;;;;;;;;9.60;99.90;;;;;;5027196;28;22081;-85
2024/01/23 12:54:17;;;;;;;;;;;9.70;99.90;;;;;;5045401;28;19957;-84
2024/01/23 12:59:45;;;;;;;;;;;9.70;99.90;;;;;;5029164;28;20406;-88
2024/01/23 13:02:11;;;;;;;;;;;9.70;99.90;;;;;;5022209;28;19952;-87
2024/01/23 13:04:39;;;;;;;;;;;9.70;99.90;;;;;;5015083;28;19940;-89
2024/01/23 13:07:06;;;;;;;;;;;9.70;99.90;;;;;;5027888;28;20298;-87
2024/01/23 13:09:31;;;;;;;;;;;9.70;99.90;;;;;;5033041;28;19995;-85
2024/01/23 13:11:58;;;;;;;;;;;9.80;99.90;;;;;;5033172;28;20392;-86
2024/01/23 13:14:24;;;;;;;;;;;9.80;99.90;;;;;;5027528;28;19946;-83
2024/01/23 13:16:50;;;;;;;;;;;9.80;99.90;;;;;;5028554;28;20008;-81
2024/01/23 13:19:16;;;;;;;;;;;9.80;99.90;;;;;;5025309;28;20018;-83
2024/01/23 13:21:41;;;;;;;;;;;9.80;99.90;;;;;;5034115;28;19950;-90
2024/01/23 13:24:07;;;;;;;;;;;9.80;99.90;;;;;;5031818;28;20346;-84
2024/01/23 13:26:33;;;;;;;;;;;9.80;99.90;;;;;;5029880;28;20002;-81
2024/01/23 13:28:58;;;;;;;;;;;9.90;99.90;;;;;;5034841;28;19979;-85
2024/01/23 13:31:34;;;;;;;;;;;9.90;99.90;;;;;;5049952;28;19951;-88
2024/01/23 13:34:01;;;;;;;;;;;9.90;99.90;;;;;;5050140;28;19955;-87
2024/01/23 13:36:38;;;;;;;;;;;9.90;99.90;;;;;;5048448;28;19968;-87
2024/01/23 13:39:13;;;;;;;;;;;10.00;99.90;;;;;;5031422;28;20010;-87
2024/01/23 13:41:44;;;;;;;;;;;10.00;99.90;;;;;;5029126;28;19951;-88
2024/01/23 13:44:10;;;;;;;;;;;10.10;99.90;;;;;;5026651;28;19957;-85
2024/01/23 13:46:36;;;;;;;;;;;10.20;99.90;;;;;;5014732;28;19945;-87
2024/01/23 13:49:03;;;;;;;;;;;10.20;99.90;;;;;;5015289;28;19951;-88
2024/01/23 13:51:29;;;;;;;;;;;10.30;99.90;;;;;;5019750;28;20010;-81
2024/01/23 13:53:55;;;;;;;;;;;10.40;99.90;;;;;;5026439;28;19937;-82
2024/01/23 13:56:23;;;;;;;;;;;10.40;99.90;;;;;;5024477;28;19940;-90
2024/01/23 13:58:49;;;;;;;;;;;10.50;99.90;;;;;;5021380;28;19948;-84
2024/01/23 14:01:14;;;;;;;;;;;10.60;99.90;;;;;;5026711;28;20381;-84
2024/01/23 14:03:40;;;;;;;;;;;10.60;99.90;;;;;;5025009;28;19950;-85
2024/01/23 14:06:06;;;;;;;;;;;10.70;99.90;;;;;;5023453;28;19945;-83
2024/01/23 14:08:35;;;;;;;;;;;10.60;99.90;;;;;;5019950;28;20406;-87
2024/01/23 14:11:00;;;;;;;;;;;10.70;99.90;;;;;;5025946;28;20637;-87
2024/01/23 14:13:36;;;;;;;;;;;10.70;99.90;;;;;;5029701;28;20481;-90
2024/01/23 14:16:02;;;;;;;;;;;10.70;99.90;;;;;;5025580;28;20035;-83
2024/01/23 14:18:28;;;;;;;;;;;10.70;99.90;;;;;;5021851;28;19975;-85
2024/01/23 14:20:54;;;;;;;;;;;10.70;99.90;;;;;;5024736;28;19953;-83
2024/01/23 14:23:19;;;;;;;;;;;10.80;99.90;;;;;;5024965;28;19956;-84
2024/01/23 14:25:45;;;;;;;;;;;10.70;99.90;;;;;;5026082;28;20356;-86
2024/01/23 14:28:10;;;;;;;;;;;10.80;99.90;;;;;;5035645;28;19954;-84
2024/01/23 14:30:36;;;;;;;;;;;10.70;99.90;;;;;;5029816;28;19965;-89
2024/01/23 14:33:02;;;;;;;;;;;10.70;99.90;;;;;;5033203;28;19955;-86
2024/01/23 14:35:27;;;;;;;;;;;10.70;99.90;;;;;;5027683;28;21466;-90
2024/01/23 14:37:54;;;;;;;;;;;10.70;99.90;;;;;;5038544;28;25054;-89
2024/01/23 14:40:28;;;;;;;;;;;10.70;99.90;;;;;;5032257;28;19950;-91
2024/01/23 14:42:57;;;;;;;;;;;10.80;99.90;;;;;;5032928;28;19956;-87
2024/01/23 14:45:26;;;;;;;;;;;10.80;99.90;;;;;;5035884;28;20103;-86
2024/01/23 14:47:52;;;;;;;;;;;10.80;99.90;;;;;;5028404;28;19992;-85
2024/01/23 14:50:18;;;;;;;;;;;10.80;99.90;;;;;;5027480;28;19991;-82
2024/01/23 14:52:43;;;;;;;;;;;10.80;99.90;;;;;;5025120;28;20278;-84
2024/01/23 14:55:28;;;;;;;;;;;;;;;;;;;;;
2024/01/23 14:57:57;;;;;;;;;;;10.80;99.90;;;;;;5002028;28;19935;-87
2024/01/23 15:00:23;;;;;;;;;;;10.90;99.90;;;;;;5044695;28;19950;-83
2024/01/23 15:02:48;;;;;;;;;;;10.90;99.90;;;;;;5044323;28;19948;-83
2024/01/23 15:05:14;;;;;;;;;;;10.90;99.90;;;;;;5035524;28;19950;-85
2024/01/23 15:07:40;;;;;;;;;;;11.00;99.90;;;;;;5035463;28;19946;-86
2024/01/23 15:10:06;;;;;;;;;;;11.00;99.90;;;;;;5035224;28;20353;-85
2024/01/23 15:12:40;;;;;;;;;;;11.00;99.90;;;;;;5035729;28;20372;-90
2024/01/23 15:15:07;;;;;;;;;;;11.00;99.90;;;;;;5020730;28;20074;-86
2024/01/23 15:17:33;;;;;;;;;;;11.00;99.90;;;;;;5016513;28;19970;-86
2024/01/23 15:19:58;;;;;;;;;;;11.00;99.90;;;;;;5010290;28;19988;-85
2024/01/23 15:22:24;;;;;;;;;;;11.00;99.90;;;;;;5024217;28;19955;-85
2024/01/23 15:24:50;;;;;;;;;;;11.00;99.90;;;;;;5033884;28;19998;-84
2024/01/23 15:27:16;;;;;;;;;;;11.10;99.90;;;;;;5029310;28;20270;-84
2024/01/23 15:29:42;;;;;;;;;;;11.10;99.90;;;;;;5002611;28;19953;-84
2024/01/23 15:32:35;;;;;;;;;;;11.20;99.90;;;;;;5038820;28;19950;-89
2024/01/23 15:38:54;;;;;;;;;;;;;;;;;;;;;
2024/01/23 15:44:27;;;;;;;;;;;11.20;99.90;;;;;;5043762;28;19953;-86
2024/01/23 15:47:31;;;;;;;;;;;11.20;99.90;;;;;;5031763;28;19934;-89
2024/01/23 15:49:57;;;;;;;;;;;11.30;99.90;;;;;;5033242;28;20225;-87
2024/01/23 15:52:22;;;;;;;;;;;11.30;99.90;;;;;;5033004;28;20719;-89
2024/01/23 15:54:48;;;;;;;;;;;11.30;99.90;;;;;;5032364;28;19959;-80
2024/01/23 15:57:13;;;;;;;;;;;11.30;99.90;;;;;;5029065;28;19949;-82
2024/01/23 15:59:39;;;;;;;;;;;11.30;99.90;;;;;;5032516;28;19948;-80
2024/01/23 16:02:05;;;;;;;;;;;11.40;99.90;;;;;;5029062;28;20106;-83
2024/01/23 16:04:30;;;;;;;;;;;11.30;99.90;;;;;;5029831;28;19943;-87
2024/01/23 16:06:56;;;;;;;;;;;11.30;99.90;;;;;;5034381;28;20007;-83
2024/01/23 16:09:21;;;;;;;;;;;11.40;99.90;;;;;;5035962;28;20005;-83
2024/01/23 16:11:48;;;;;;;;;;;11.40;99.90;;;;;;5027736;28;20020;-85
2024/01/23 16:14:14;;;;;;;;;;;11.40;99.90;;;;;;5031710;28;19939;-84
2024/01/23 16:16:40;;;;;;;;;;;11.40;99.90;;;;;;5030297;28;20388;-82
2024/01/23 16:19:05;;;;;;;;;;;11.40;99.90;;;;;;5044079;28;19956;-83
2024/01/23 16:21:31;;;;;;;;;;;11.50;99.90;;;;;;5034227;28;20397;-86
2024/01/23 16:24:06;;;;;;;;;;;11.50;99.90;;;;;;5031413;28;19942;-89
2024/01/23 16:39:08;;;;;;;;;;;11.60;99.90;;;;;;5034558;28;20444;-89
2024/01/23 16:41:37;;;;;;;;;;;11.60;99.90;;;;;;5035470;28;20245;-86
2024/01/23 16:44:03;;;;;;;;;;;11.60;99.90;;;;;;5032119;28;19935;-84
2024/01/23 16:46:28;;;;;;;;;;;11.60;99.90;;;;;;5039826;28;21074;-83
2024/01/23 16:48:58;;;;;;;;;;;11.70;99.90;;;;;;5035078;28;20108;-87
2024/01/23 16:51:23;;;;;;;;;;;11.70;99.90;;;;;;5034847;28;20207;-86
2024/01/23 16:53:55;;;;;;;;;;;11.70;99.90;;;;;;5038963;28;20128;-86
2024/01/23 16:56:20;;;;;;;;;;;11.80;99.90;;;;;;5045739;28;20042;-85
2024/01/23 16:58:49;;;;;;;;;;;11.80;99.90;;;;;;5030332;28;20443;-86
2024/01/23 17:01:15;;;;;;;;;;;11.70;99.90;;;;;;5034068;28;19944;-85
2024/01/23 17:03:41;;;;;;;;;;;11.80;99.90;;;;;;5034124;28;19936;-86
2024/01/23 18:03:37;;;;;;;;;;;11.90;99.90;;;;;;5009385;23;20020;-82
2024/01/23 18:06:03;;;;;;;;;;;12.00;99.90;;;;;;4976043;28;19992;-82
2024/01/23 18:08:29;;;;;;;;;;;12.00;99.90;;;;;;4976129;28;20018;-82
2024/01/23 18:10:54;;;;;;;;;;;12.00;99.90;;;;;;4978704;28;19945;-82
2024/01/23 18:13:20;;;;;;;;;;;12.00;99.90;;;;;;4974216;28;19949;-81
2024/01/23 18:15:45;;;;;;;;;;;12.10;99.90;;;;;;4973439;28;20004;-81
2024/01/23 18:18:11;;;;;;;;;;;12.10;99.90;;;;;;4971275;28;19972;-82
2024/01/23 18:20:37;;;;;;;;;;;12.10;99.90;;;;;;4970658;28;20076;-81
2024/01/23 18:23:05;;;;;;;;;;;12.10;99.90;;;;;;4971157;28;19953;-82
2024/01/23 18:25:32;;;;;;;;;;;12.20;99.90;;;;;;4974943;28;19955;-81
2024/01/23 18:27:57;;;;;;;;;;;12.20;99.90;;;;;;4976502;28;20025;-81
2024/01/23 18:30:23;;;;;;;;;;;12.20;99.90;;;;;;4971153;28;20432;-83
2024/01/23 18:32:49;;;;;;;;;;;12.10;99.90;;;;;;4975416;28;20005;-83
2024/01/23 18:35:14;;;;;;;;;;;12.20;99.90;;;;;;4974997;28;19952;-83
2024/01/23 18:37:40;;;;;;;;;;;12.20;99.90;;;;;;4974016;28;20467;-83
2024/01/23 18:40:06;;;;;;;;;;;12.10;99.90;;;;;;4974577;28;19955;-83
2024/01/23 18:42:32;;;;;;;;;;;12.20;99.90;;;;;;4977261;28;19946;-83
2024/01/23 18:44:58;;;;;;;;;;;12.30;99.90;;;;;;4970779;28;20003;-83
2024/01/23 18:47:23;;;;;;;;;;;12.20;99.90;;;;;;4975764;28;20495;-83
2024/01/23 18:49:49;;;;;;;;;;;12.20;99.90;;;;;;4974808;28;20009;-83
2024/01/23 18:52:14;;;;;;;;;;;12.20;99.90;;;;;;4976376;28;19948;-82
2024/01/23 18:54:46;;;;;;;;;;;12.20;99.90;;;;;;4975037;28;20079;-82
2024/01/23 18:57:12;;;;;;;;;;;12.20;99.90;;;;;;4972684;28;20026;-82
2024/01/23 18:59:37;;;;;;;;;;;12.30;99.90;;;;;;4970743;28;19943;-83
2024/01/23 19:02:05;;;;;;;;;;;12.20;99.90;;;;;;4971898;28;19950;-82
2024/01/23 19:04:31;;;;;;;;;;;12.30;99.90;;;;;;4971257;28;19957;-83
2024/01/23 19:06:59;;;;;;;;;;;12.30;99.90;;;;;;4978556;28;19942;-82
2024/01/23 19:09:28;;;;;;;;;;;12.30;99.90;;;;;;4973388;28;20108;-83
2024/01/23 19:11:53;;;;;;;;;;;12.30;99.90;;;;;;4975833;28;19939;-83
2024/01/23 19:14:19;;;;;;;;;;;12.20;99.90;;;;;;4971268;28;19942;-82
2024/01/23 19:16:45;;;;;;;;;;;12.20;99.90;;;;;;4976483;28;19993;-82
2024/01/23 19:19:13;;;;;;;;;;;12.20;99.90;;;;;;4972126;28;19942;-82
2024/01/23 19:21:39;;;;;;;;;;;12.20;99.90;;;;;;4987351;28;19947;-82
2024/01/23 19:24:05;;;;;;;;;;;12.20;99.90;;;;;;5000463;28;19954;-83
2024/01/23 19:26:30;;;;;;;;;;;12.20;99.90;;;;;;5002018;28;19939;-83
2024/01/23 19:28:56;;;;;;;;;;;12.20;99.90;;;;;;5000073;28;19988;-82
2024/01/23 19:31:21;;;;;;;;;;;12.20;99.90;;;;;;4994282;28;20352;-82
2024/01/23 19:33:50;;;;;;;;;;;12.20;99.90;;;;;;4975041;28;25192;-82
2024/01/23 19:36:16;;;;;;;;;;;12.20;99.90;;;;;;4975996;28;19959;-82
2024/01/23 19:38:42;;;;;;;;;;;12.20;99.90;;;;;;4975923;28;19951;-83
2024/01/23 19:41:10;;;;;;;;;;;12.20;99.90;;;;;;4978350;28;20386;-83
2024/01/23 19:43:39;;;;;;;;;;;12.20;99.90;;;;;;4975743;28;20040;-83
2024/01/23 19:46:05;;;;;;;;;;;12.20;99.90;;;;;;4971310;28;20056;-83
2024/01/23 19:48:32;;;;;;;;;;;12.20;99.90;;;;;;4984502;28;20153;-83
2024/01/23 19:50:59;;;;;;;;;;;12.20;99.90;;;;;;4997392;28;19952;-83
2024/01/23 19:53:25;;;;;;;;;;;12.20;99.90;;;;;;5001702;28;21019;-82
2024/01/23 19:55:53;;;;;;;;;;;12.20;99.90;;;;;;5001637;28;19933;-82
2024/01/23 19:58:18;;;;;;;;;;;12.20;99.90;;;;;;4986789;28;19956;-82
2024/01/23 20:00:44;;;;;;;;;;;12.10;99.90;;;;;;4976287;28;20404;-82
2024/01/23 20:03:09;;;;;;;;;;;12.20;99.90;;;;;;4973008;28;20121;-81
2024/01/23 20:05:36;;;;;;;;;;;12.10;99.90;;;;;;4976756;28;19937;-82
2024/01/23 20:08:05;;;;;;;;;;;12.10;99.90;;;;;;4975097;28;19949;-81
2024/01/23 20:10:32;;;;;;;;;;;12.10;99.90;;;;;;4979046;28;19949;-82
2024/01/23 20:12:58;;;;;;;;;;;12.10;99.90;;;;;;4974344;28;19947;-81
2024/01/23 20:15:26;;;;;;;;;;;12.10;99.90;;;;;;4977538;28;20396;-82
2024/01/23 20:17:54;;;;;;;;;;;12.10;99.90;;;;;;4972175;28;19947;-81
2024/01/23 20:20:21;;;;;;;;;;;12.10;99.90;;;;;;4971237;28;19972;-81
2024/01/23 20:22:46;;;;;;;;;;;12.10;99.90;;;;;;4972014;28;19991;-83
2024/01/23 20:25:12;;;;;;;;;;;12.10;99.90;;;;;;4974051;28;20327;-82
2024/01/23 20:27:40;;;;;;;;;;;12.00;99.90;;;;;;4978786;28;20002;-83
2024/01/23 20:30:06;;;;;;;;;;;12.00;99.90;;;;;;4965757;28;20374;-83
2024/01/23 20:32:32;;;;;;;;;;;12.00;99.90;;;;;;4972301;28;20028;-83
2024/01/23 20:34:58;;;;;;;;;;;12.00;99.90;;;;;;4975144;28;20051;-83
2024/01/23 20:37:23;;;;;;;;;;;12.00;99.90;;;;;;4978198;28;20375;-83
2024/01/23 20:39:49;;;;;;;;;;;12.00;99.90;;;;;;4971597;28;19953;-83
2024/01/23 20:42:16;;;;;;;;;;;12.00;99.90;;;;;;4973771;28;20054;-83
2024/01/23 20:44:45;;;;;;;;;;;12.00;99.90;;;;;;4967872;28;19940;-83
2024/01/23 20:47:11;;;;;;;;;;;12.00;99.90;;;;;;4972944;28;19969;-83
2024/01/23 20:49:36;;;;;;;;;;;12.00;99.90;;;;;;4972901;28;20319;-82
2024/01/23 20:52:02;;;;;;;;;;;12.00;99.90;;;;;;4974923;28;19952;-83
2024/01/23 20:54:31;;;;;;;;;;;12.10;99.90;;;;;;4973506;28;19941;-83
2024/01/23 20:56:57;;;;;;;;;;;12.00;99.90;;;;;;4977305;28;19947;-83
2024/01/23 20:59:22;;;;;;;;;;;12.00;99.90;;;;;;4973825;28;20158;-83
2024/01/23 21:01:48;;;;;;;;;;;12.00;99.90;;;;;;4972342;28;19965;-83